Time;durP1;ratioP1;P1;durP2;ratioP2;P2;SDS_P1;SDS_P2;PMS_P1;PMS_P2;Temp;Humidity;BMP_temperature;BMP_pressure;BME280_temperature;BME280_humidity;BME280_pressure;Samples;Min_cycle;Max_cycle;Signal;HPM_P1;HPM_P2
2022/10/17 00:02:54;;;;;;;11.30;5.05;;;;;;;15.89;77.73;100743.03;10300850;28;20481;-65
2022/10/17 00:07:56;;;;;;;7.85;4.00;;;;;;;15.88;77.88;100745.94;10306675;28;20043;-65
2022/10/17 00:12:57;;;;;;;9.15;4.57;;;;;;;15.92;77.77;100749.97;10308674;28;20114;-65
2022/10/17 00:18:00;;;;;;;6.57;3.78;;;;;;;15.90;77.90;100761.00;10309678;28;20073;-65
2022/10/17 00:23:04;;;;;;;10.38;4.10;;;;;;;15.90;77.73;100763.72;10310828;28;20146;-65
2022/10/17 00:28:13;;;;;;;5.82;3.45;;;;;;;15.91;77.64;100765.38;10302195;28;20055;-65
2022/10/17 00:33:14;;;;;;;6.47;3.58;;;;;;;15.93;77.85;100771.41;10306960;28;20085;-65
2022/10/17 00:38:16;;;;;;;7.07;3.55;;;;;;;15.92;77.86;100764.34;10307032;28;20462;-65
2022/10/17 00:43:17;;;;;;;7.93;3.92;;;;;;;15.93;77.95;100767.88;10305960;28;20124;-65
2022/10/17 00:48:21;;;;;;;6.85;4.10;;;;;;;15.90;77.77;100774.56;10307254;28;20047;-65
2022/10/17 00:53:23;;;;;;;10.15;4.03;;;;;;;15.84;78.34;100768.06;10290780;28;20452;-65
2022/10/17 00:58:25;;;;;;;8.85;4.00;;;;;;;15.92;77.78;100764.34;10303343;28;20050;-65
2022/10/17 01:03:26;;;;;;;7.50;4.10;;;;;;;15.95;77.83;100774.78;10284767;28;20596;-65
2022/10/17 01:08:28;;;;;;;8.45;3.72;;;;;;;15.94;77.76;100778.53;10304277;28;20058;-65
2022/10/17 01:13:37;;;;;;;8.77;3.40;;;;;;;15.92;77.54;100777.06;10301838;28;20113;-66
2022/10/17 01:18:48;;;;;;;8.27;3.70;;;;;;;15.88;77.39;100781.19;10304047;28;20084;-66
2022/10/17 01:24:26;;;;;;;17.33;7.35;;;;;;;15.80;77.95;100774.91;10297927;28;20066;-66
2022/10/17 01:29:51;;;;;;;8.57;4.90;;;;;;;15.76;77.59;100781.78;10288902;28;20429;-66
2022/10/17 01:34:58;;;;;;;8.13;3.63;;;;;;;15.72;77.39;100769.63;10300270;28;20621;-66
2022/10/17 01:40:11;;;;;;;8.50;5.05;;;;;;;15.66;77.42;100781.28;10298876;28;20071;-65
2022/10/17 01:45:36;;;;;;;7.60;4.47;;;;;;;15.63;77.57;100779.78;10297190;28;20058;-66
2022/10/17 01:50:42;;;;;;;11.20;4.05;;;;;;;15.59;77.53;100780.38;10289478;28;20139;-66
2022/10/17 01:55:46;;;;;;;9.18;4.10;;;;;;;15.55;77.56;100766.38;10303301;28;20145;-66
2022/10/17 02:00:49;;;;;;;8.00;4.05;;;;;;;15.53;77.54;100768.47;10299782;28;20054;-65
2022/10/17 02:05:50;;;;;;;16.42;4.85;;;;;;;15.47;77.45;100772.78;10306440;28;20110;-65
2022/10/17 02:11:04;;;;;;;11.23;3.80;;;;;;;15.42;77.40;100775.28;10285478;28;20089;-65
2022/10/17 02:16:24;;;;;;;7.80;3.75;;;;;;;15.37;77.41;100769.59;10300798;28;20101;-66
2022/10/17 02:21:50;;;;;;;7.82;4.78;;;;;;;15.31;77.39;100773.09;10306585;28;20043;-66
2022/10/17 02:27:07;;;;;;;6.88;4.55;;;;;;;15.25;77.54;100776.59;10305536;28;20082;-66
2022/10/17 02:32:13;;;;;;;12.52;4.45;;;;;;;15.22;77.44;100768.84;10304257;28;20154;-66
2022/10/17 02:37:20;;;;;;;10.75;3.67;;;;;;;15.20;77.58;100776.34;10306319;28;20054;-66
2022/10/17 02:42:23;;;;;;;6.72;3.88;;;;;;;15.17;77.60;100782.16;10301092;28;20074;-65
2022/10/17 02:47:31;;;;;;;8.73;5.00;;;;;;;15.13;77.58;100786.28;10280137;28;20146;-65
2022/10/17 02:52:38;;;;;;;7.00;3.65;;;;;;;15.11;77.43;100780.22;10301163;28;20128;-65
2022/10/17 02:57:43;;;;;;;;;;;;;;;15.04;77.95;100777.44;10263078;28;20448;-65
2022/10/17 03:02:50;;;;;;;7.28;3.78;;;;;;;15.05;77.79;100781.84;10265014;28;20032;-65
2022/10/17 03:07:53;;;;;;;12.00;4.30;;;;;;;14.98;77.41;100783.66;10263395;28;20443;-65
2022/10/17 03:12:55;;;;;;;10.00;5.10;;;;;;;14.90;77.87;100787.31;10246485;28;21196;-65
2022/10/17 03:17:56;;;;;;;5.95;4.80;;;;;;;14.92;77.73;100787.13;10263315;28;20057;-65
2022/10/17 03:22:58;;;;;;;7.28;4.78;;;;;;;14.87;77.77;100793.13;10260200;28;20418;-66
2022/10/17 03:28:00;;;;;;;5.25;4.70;;;;;;;14.83;77.76;100795.38;10267106;28;20097;-66
2022/10/17 03:33:01;;;;;;;8.18;4.57;;;;;;;14.83;77.75;100806.22;10268227;28;20055;-66
2022/10/17 03:38:03;;;;;;;9.82;4.68;;;;;;;14.79;77.75;100810.34;10252994;28;20081;-66
2022/10/17 03:43:04;;;;;;;8.60;4.05;;;;;;;14.80;77.60;100811.16;10264976;28;20058;-65
2022/10/17 03:48:06;;;;;;;10.40;3.97;;;;;;;14.78;77.67;100822.19;10271015;28;20051;-65
2022/10/17 03:53:07;;;;;;;6.95;4.18;;;;;;;14.73;77.77;100826.50;10257745;28;20055;-66
2022/10/17 03:58:09;;;;;;;8.35;4.78;;;;;;;14.70;77.85;100825.00;10307297;28;20050;-66
2022/10/17 04:03:10;;;;;;;5.55;4.18;;;;;;;14.73;77.74;100835.47;10304857;28;20135;-66
2022/10/17 04:08:17;;;;;;;;;;;;;;;14.70;78.14;100843.94;10291545;28;20071;-65
2022/10/17 04:13:18;;;;;;;7.07;3.75;;;;;;;14.71;77.84;100847.50;10313082;28;20336;-66
2022/10/17 04:18:20;;;;;;;8.98;4.15;;;;;;;14.69;77.92;100853.09;10307705;28;20572;-66
2022/10/17 04:23:22;;;;;;;3.88;3.45;;;;;;;14.66;78.03;100848.06;10303161;28;20089;-66
2022/10/17 04:28:25;;;;;;;3.70;3.17;;;;;;;14.69;77.92;100839.56;10306490;28;20082;-66
2022/10/17 04:33:27;;;;;;;4.45;3.60;;;;;;;14.71;77.92;100842.94;10305502;28;20070;-66
2022/10/17 04:38:29;;;;;;;4.13;3.25;;;;;;;14.70;78.03;100841.25;10305853;28;20041;-66
2022/10/17 04:43:33;;;;;;;4.40;3.38;;;;;;;14.72;77.85;100839.19;10314883;28;20497;-66
2022/10/17 04:48:35;;;;;;;9.85;4.05;;;;;;;14.73;78.00;100851.72;10313021;28;20181;-66
2022/10/17 04:53:38;;;;;;;5.55;3.70;;;;;;;14.72;77.96;100851.88;10310829;28;20073;-66
2022/10/17 04:58:40;;;;;;;5.63;3.80;;;;;;;14.73;77.82;100853.56;10313834;28;20556;-66
2022/10/17 05:03:42;;;;;;;3.90;3.28;;;;;;;14.70;77.83;100857.47;10315229;28;20606;-66
2022/10/17 05:08:44;;;;;;;9.32;3.25;;;;;;;14.69;77.80;100861.19;10314078;28;20046;-66
2022/10/17 05:13:50;;;;;;;13.23;3.90;;;;;;;14.65;77.78;100871.59;10307717;28;20127;-66
2022/10/17 05:18:54;;;;;;;6.32;3.15;;;;;;;14.61;77.74;100874.84;10308111;28;20070;-67
2022/10/17 05:23:55;;;;;;;3.88;3.25;;;;;;;14.62;77.75;100869.25;10304885;28;20058;-67
2022/10/17 05:28:59;;;;;;;6.00;3.70;;;;;;;14.58;77.87;100859.84;10299249;28;20066;-68
2022/10/17 05:34:02;;;;;;;5.95;3.25;;;;;;;14.54;77.68;100858.50;10289457;28;20061;-67
2022/10/17 05:39:03;;;;;;;5.70;3.28;;;;;;;14.52;77.88;100871.41;10307746;28;20129;-67
2022/10/17 05:44:04;;;;;;;7.45;5.18;;;;;;;14.48;77.72;100878.22;10302386;28;20230;-67
2022/10/17 05:49:09;;;;;;;6.13;4.15;;;;;;;14.48;77.65;100879.03;10282462;28;20047;-69
2022/10/17 05:54:19;;;;;;;8.88;4.63;;;;;;;14.48;77.70;100879.03;10297335;28;20061;-69
2022/10/17 05:59:21;;;;;;;10.02;4.82;;;;;;;14.52;77.70;100868.69;10279290;28;20151;-70
2022/10/17 06:04:22;;;;;;;10.52;5.05;;;;;;;14.48;77.86;100884.44;10293004;28;20409;-70
2022/10/17 06:09:24;;;;;;;13.32;4.53;;;;;;;14.52;77.52;100894.91;10303219;28;20101;-69
2022/10/17 06:14:25;;;;;;;11.30;4.82;;;;;;;14.53;77.56;100883.03;10292112;28;20139;-69
2022/10/17 06:19:27;;;;;;;10.68;5.03;;;;;;;14.54;77.65;100885.56;10289680;28;20055;-68
2022/10/17 06:24:28;;;;;;;11.55;6.13;;;;;;;14.60;77.67;100884.84;10298439;28;20108;-70
2022/10/17 06:29:29;;;;;;;10.20;5.60;;;;;;;14.66;77.87;100889.50;10284289;28;20050;-70
2022/10/17 06:34:31;;;;;;;10.52;5.40;;;;;;;14.72;77.92;100893.31;10298316;28;20502;-69
2022/10/17 06:39:33;;;;;;;4.88;3.92;;;;;;;14.76;78.06;100900.03;10307433;28;20609;-71
2022/10/17 06:44:35;;;;;;;5.78;4.63;;;;;;;14.84;78.14;100908.03;10305089;28;20078;-74
2022/10/17 06:49:36;;;;;;;6.70;4.55;;;;;;;14.94;77.93;100920.44;10301126;28;20129;-73
2022/10/17 06:54:38;;;;;;;9.38;4.55;;;;;;;15.03;78.08;100928.25;10307121;28;20490;-71
2022/10/17 06:59:39;;;;;;;5.63;4.70;;;;;;;15.12;78.15;100925.41;10291234;28;20043;-73
2022/10/17 07:04:41;;;;;;;6.63;4.20;;;;;;;15.22;78.20;100934.06;10315195;28;20057;-72
2022/10/17 07:09:42;;;;;;;6.80;5.22;;;;;;;15.33;78.23;100932.72;10307280;28;20442;-71
2022/10/17 07:14:46;;;;;;;10.52;4.80;;;;;;;15.42;78.44;100927.00;10315271;28;20062;-70
2022/10/17 07:19:47;;;;;;;8.68;5.57;;;;;;;15.56;78.27;100929.81;10318531;28;20051;-70
2022/10/17 07:24:49;;;;;;;10.13;6.00;;;;;;;15.71;78.36;100936.00;10312581;28;20481;-70
2022/10/17 07:29:50;;;;;;;14.55;6.43;;;;;;;15.86;78.44;100944.09;10316689;28;20111;-73
2022/10/17 07:34:51;;;;;;;11.05;6.03;;;;;;;16.01;78.45;100950.22;10296485;28;20487;-68
2022/10/17 07:39:53;;;;;;;17.45;7.22;;;;;;;16.18;78.57;100966.22;10293486;28;20097;-69
2022/10/17 07:44:54;;;;;;;7.82;5.85;;;;;;;16.34;78.68;100960.47;10305829;28;20081;-69
2022/10/17 07:49:56;;;;;;;5.68;5.13;;;;;;;16.54;78.68;100965.19;10316182;28;20489;-70
2022/10/17 07:54:58;;;;;;;11.35;5.15;;;;;;;16.73;78.99;100972.63;10309294;28;20116;-70
2022/10/17 08:00:00;;;;;;;9.98;4.47;;;;;;;16.92;78.96;100967.50;10311394;28;20093;-69
2022/10/17 08:05:01;;;;;;;7.20;4.57;;;;;;;17.15;79.09;100956.31;10306173;28;20449;-71
2022/10/17 08:10:03;;;;;;;4.80;4.28;;;;;;;17.40;78.97;100968.28;10309844;28;20133;-71
2022/10/17 08:15:06;;;;;;;7.43;5.03;;;;;;;17.62;79.00;100970.84;10306636;28;20568;-70
2022/10/17 08:20:09;;;;;;;7.95;4.70;;;;;;;17.89;78.59;100955.41;10289600;28;20079;-70
2022/10/17 08:25:10;;;;;;;10.13;4.30;;;;;;;18.06;78.52;100955.81;10293007;28;20456;-69
2022/10/17 08:30:12;;;;;;;11.02;5.40;;;;;;;18.24;78.58;100958.69;10312275;28;20109;-70
2022/10/17 08:35:14;;;;;;;10.25;5.50;;;;;;;18.41;78.09;100958.28;10294891;28;20386;-69
2022/10/17 08:40:23;;;;;;;6.43;5.10;;;;;;;18.58;77.78;100966.81;10288570;28;20054;-70
2022/10/17 08:45:34;;;;;;;8.82;5.40;;;;;;;18.73;77.56;100956.50;10292245;28;20063;-70
2022/10/17 08:50:43;;;;;;;9.60;4.88;;;;;;;18.89;77.32;100959.81;10307781;28;20042;-70
2022/10/17 08:55:46;;;;;;;9.63;4.40;;;;;;;18.97;77.15;100956.84;10285113;28;20066;-70
2022/10/17 09:00:59;;;;;;;5.97;4.00;;;;;;;19.18;76.60;100948.34;10306739;28;20050;-69
2022/10/17 09:06:13;;;;;;;10.02;4.65;;;;;;;19.35;76.38;100947.84;10305876;28;20494;-70
2022/10/17 09:11:42;;;;;;;6.57;3.40;;;;;;;19.46;75.96;100952.59;10298566;28;20564;-71
2022/10/17 09:17:07;;;;;;;5.68;3.45;;;;;;;19.62;75.56;100957.50;10300237;28;20070;-71
2022/10/17 09:22:17;;;;;;;7.97;3.70;;;;;;;19.71;74.77;100957.25;10305627;28;20066;-70
2022/10/17 09:27:26;;;;;;;8.77;3.60;;;;;;;19.81;74.39;100969.38;10302962;28;21035;-70
2022/10/17 09:32:28;;;;;;;12.00;3.50;;;;;;;19.96;74.30;100979.97;10310931;28;20054;-70
2022/10/17 09:37:31;;;;;;;11.18;3.63;;;;;;;20.06;73.64;100970.41;10303127;28;20054;-70
2022/10/17 09:42:34;;;;;;;5.30;3.28;;;;;;;20.24;73.03;100958.69;10300662;28;20059;-71
2022/10/17 09:48:00;;;;;;;6.75;3.33;;;;;;;20.33;72.52;100969.09;10306249;28;20129;-71
2022/10/17 09:53:24;;;;;;;8.60;2.70;;;;;;;20.48;71.87;100973.38;10293725;28;20137;-71
2022/10/17 09:58:56;;;;;;;12.07;3.72;;;;;;;20.65;71.79;100981.84;10299817;28;20082;-71
2022/10/17 10:04:16;;;;;;;5.63;2.38;;;;;;;20.79;71.31;100986.94;10296799;28;20074;-71
2022/10/17 10:09:24;;;;;;;3.70;2.10;;;;;;;20.99;70.37;100988.56;10302296;28;20158;-70
2022/10/17 10:14:35;;;;;;;7.70;2.65;;;;;;;21.12;70.27;100993.88;10302266;28;20141;-71
2022/10/17 10:19:37;;;;;;;8.98;2.30;;;;;;;21.32;69.41;100990.03;10283576;28;20046;-72
2022/10/17 10:24:39;;;;;;;4.35;1.80;;;;;;;21.42;69.01;101000.44;10282638;28;20184;-71
2022/10/17 10:29:51;;;;;;;8.10;1.67;;;;;;;21.54;68.13;101004.06;10305031;28;20513;-72
2022/10/17 10:35:04;;;;;;;5.80;2.38;;;;;;;21.63;67.77;101002.69;10296944;28;20069;-72
2022/10/17 10:40:23;;;;;;;6.72;3.05;;;;;;;21.85;67.75;100997.50;10297914;28;20077;-72
2022/10/17 10:45:40;;;;;;;7.40;1.83;;;;;;;22.06;67.36;100995.25;10275783;28;20054;-71
2022/10/17 10:50:55;;;;;;;2.28;1.77;;;;;;;21.92;66.65;100990.03;10286050;28;20105;-72
2022/10/17 10:56:18;;;;;;;5.28;1.90;;;;;;;22.09;66.58;100986.56;10302183;28;20054;-72
2022/10/17 11:01:55;;;;;;;6.75;1.58;;;;;;;22.36;66.27;100986.97;10300902;28;20082;-70
2022/10/17 11:07:06;;;;;;;5.85;1.55;;;;;;;22.37;66.03;100997.69;10300674;28;20054;-71
2022/10/17 11:12:18;;;;;;;7.80;1.77;;;;;;;22.62;65.41;101004.81;10286344;28;20051;-70
2022/10/17 11:17:31;;;;;;;4.13;1.48;;;;;;;22.71;65.37;100992.44;10304452;28;20184;-71
2022/10/17 11:22:41;;;;;;;3.60;1.30;;;;;;;22.64;64.58;101005.41;10301359;28;20133;-71
2022/10/17 11:27:42;;;;;;;5.05;1.30;;;;;;;22.55;64.31;101015.06;10310736;28;20054;-71
2022/10/17 11:32:56;;;;;;;7.93;1.58;;;;;;;22.69;64.31;101004.69;10301188;28;20074;-72
2022/10/17 11:38:17;;;;;;;10.85;2.00;;;;;;;22.93;64.35;101008.25;10278781;28;20054;-71
2022/10/17 11:43:41;;;;;;;3.03;1.48;;;;;;;23.08;64.07;101000.34;10301268;28;20481;-71
2022/10/17 11:49:13;;;;;;;6.28;1.40;;;;;;;23.26;64.01;100999.34;10296776;28;20054;-71
2022/10/17 11:54:29;;;;;;;6.00;1.40;;;;;;;23.52;63.37;101002.56;10309311;28;20054;-71
2022/10/17 11:59:45;;;;;;;5.68;1.63;;;;;;;23.76;63.22;101008.75;10307753;28;20051;-71
2022/10/17 12:05:08;;;;;;;6.68;1.60;;;;;;;23.91;62.00;101002.72;10311498;28;20078;-71
2022/10/17 12:10:36;;;;;;;3.75;1.10;;;;;;;24.14;61.59;101004.47;10289246;28;20050;-71
2022/10/17 12:15:37;;;;;;;5.03;1.73;;;;;;;24.27;61.33;101001.41;10306463;28;20101;-71
2022/10/17 12:20:39;;;;;;;7.65;1.88;;;;;;;24.38;61.07;100988.63;10301951;28;20448;-72
2022/10/17 12:25:49;;;;;;;4.75;1.70;;;;;;;24.54;60.99;100981.47;10306222;28;20051;-71
2022/10/17 12:31:24;;;;;;;5.13;1.85;;;;;;;24.77;60.36;100988.66;10289018;28;20046;-72
2022/10/17 12:36:33;;;;;;;5.85;1.17;;;;;;;24.92;59.88;100993.50;10291454;28;20062;-73
2022/10/17 12:41:38;;;;;;;4.57;1.13;;;;;;;25.02;59.62;100990.91;10307850;28;20055;-72
2022/10/17 12:47:18;;;;;;;4.80;1.25;;;;;;;25.07;58.68;100999.19;10305627;28;20138;-73
2022/10/17 12:52:33;;;;;;;3.50;1.33;;;;;;;25.18;58.45;101008.41;10308854;28;20137;-73
2022/10/17 12:57:49;;;;;;;5.90;1.25;;;;;;;25.23;58.60;101011.25;10305190;28;20532;-72
2022/10/17 13:02:54;;;;;;;4.45;1.00;;;;;;;25.19;57.77;101009.25;10304357;28;20517;-72
2022/10/17 13:07:58;;;;;;;4.97;1.15;;;;;;;25.14;57.88;101005.34;10307189;28;20054;-72
2022/10/17 13:13:44;;;;;;;2.63;1.10;;;;;;;25.26;58.29;101004.41;10275909;28;20046;-73
2022/10/17 13:18:52;;;;;;;3.47;1.50;;;;;;;25.54;57.72;101000.56;10289539;28;20567;-73
2022/10/17 13:23:53;;;;;;;6.28;1.30;;;;;;;25.62;57.75;101002.03;10308710;28;20054;-72
2022/10/17 13:29:10;;;;;;;3.92;1.10;;;;;;;26.01;57.40;101007.38;10289393;28;20062;-72
2022/10/17 13:34:17;;;;;;;2.90;1.20;;;;;;;26.23;56.95;101008.06;10301589;28;20549;-71
2022/10/17 13:39:32;;;;;;;5.45;1.17;;;;;;;26.22;56.25;101011.09;10292587;28;20149;-72
2022/10/17 13:44:55;;;;;;;3.33;1.08;;;;;;;26.20;55.87;101016.03;10299740;28;20050;-72
2022/10/17 13:49:57;;;;;;;4.55;1.02;;;;;;;26.46;55.51;101019.78;10308109;28;20058;-72
2022/10/17 13:55:15;;;;;;;5.22;0.85;;;;;;;26.52;55.45;101024.25;10304284;28;20137;-71
2022/10/17 14:00:20;;;;;;;4.13;1.75;;;;;;;26.45;55.15;101026.41;10301855;28;20050;-71
2022/10/17 14:05:22;;;;;;;3.13;0.90;;;;;;;26.55;54.83;101018.22;10305565;28;20537;-72
2022/10/17 14:10:29;;;;;;;3.72;1.00;;;;;;;26.72;54.67;101015.31;10284274;28;20406;-71
2022/10/17 14:15:33;;;;;;;8.60;1.10;;;;;;;26.59;54.43;101026.81;10301667;28;20129;-71
2022/10/17 14:20:36;;;;;;;3.83;1.50;;;;;;;26.67;54.62;101027.13;10304995;28;20141;-72
2022/10/17 14:26:16;;;;;;;4.80;1.17;;;;;;;26.73;54.26;101025.22;10290364;28;20043;-70
2022/10/17 14:31:25;;;;;;;5.93;1.10;;;;;;;26.70;54.11;101029.38;10294644;28;20132;-70
2022/10/17 14:36:43;;;;;;;4.88;1.10;;;;;;;26.76;54.10;101035.75;10302761;28;20054;-73
2022/10/17 14:41:45;;;;;;;4.38;0.70;;;;;;;26.59;53.96;101032.34;10294816;28;20041;-72
2022/10/17 14:46:52;;;;;;;3.28;0.70;;;;;;;26.40;53.57;101035.50;10308958;28;20050;-70
2022/10/17 14:52:12;;;;;;;;;;;;;;;26.36;57.50;101039.84;10300892;28;20070;-69
2022/10/17 14:57:24;;;;;;;3.97;1.00;;;;;;;26.26;54.60;101043.41;10302519;28;20320;-69
2022/10/17 15:02:28;;;;;;;1.45;0.63;;;;;;;26.04;54.55;101046.22;10284778;28;20058;-71
2022/10/17 15:07:30;;;;;;;7.53;0.88;;;;;;;25.98;54.95;101058.28;10285506;28;20692;-69
2022/10/17 15:12:32;;;;;;;3.33;1.70;;;;;;;25.93;54.75;101058.25;10297576;28;20137;-67
2022/10/17 15:17:33;;;;;;;2.00;0.90;;;;;;;25.76;55.26;101063.84;10299048;28;20509;-69
2022/10/17 15:22:35;;;;;;;3.30;0.88;;;;;;;25.52;55.64;101075.16;10279733;28;20058;-70
2022/10/17 15:27:36;;;;;;;6.07;1.23;;;;;;;25.51;55.92;101073.50;10316647;28;20050;-70
2022/10/17 15:32:38;;;;;;;4.10;1.15;;;;;;;25.48;55.72;101085.03;10313512;28;20102;-69
2022/10/17 15:37:41;;;;;;;3.60;1.25;;;;;;;25.39;56.63;101074.72;10293434;28;20086;-69
2022/10/17 15:42:43;;;;;;;4.20;1.13;;;;;;;25.21;56.95;101079.44;10298132;28;20547;-69
2022/10/17 15:47:51;;;;;;;2.50;1.20;;;;;;;25.06;56.70;101070.97;10295695;28;20070;-69
2022/10/17 15:52:53;;;;;;;4.55;1.30;;;;;;;25.07;56.94;101067.97;10294704;28;20061;-70
2022/10/17 15:57:54;;;;;;;3.05;1.13;;;;;;;25.01;57.51;101070.94;10308411;28;20148;-69
2022/10/17 16:02:56;;;;;;;5.20;1.85;;;;;;;24.82;58.12;101079.47;10306660;28;20097;-69
2022/10/17 16:07:59;;;;;;;8.38;1.88;;;;;;;24.63;58.39;101081.66;10306381;28;20113;-68
2022/10/17 16:13:01;;;;;;;6.15;2.22;;;;;;;24.45;58.95;101093.72;10302087;28;20174;-69
2022/10/17 16:18:02;;;;;;;12.52;5.72;;;;;;;24.27;59.66;101096.72;10302205;28;20056;-69
2022/10/17 16:23:11;;;;;;;5.60;4.30;;;;;;;24.05;60.32;101100.22;10308006;28;20163;-69
2022/10/17 16:28:12;;;;;;;8.27;3.17;;;;;;;23.83;60.74;101097.31;10301675;28;20428;-68
2022/10/17 16:33:14;;;;;;;9.38;2.88;;;;;;;23.61;61.38;101115.53;10311743;28;20057;-69
2022/10/17 16:38:15;;;;;;;6.43;2.50;;;;;;;23.44;61.78;101113.56;10305268;28;20078;-68
2022/10/17 16:43:17;;;;;;;6.50;2.28;;;;;;;23.33;62.25;101119.91;10308042;28;20187;-69
2022/10/17 16:48:18;;;;;;;5.90;2.88;;;;;;;23.22;62.73;101126.25;10300936;28;20073;-69
2022/10/17 16:53:19;;;;;;;11.43;5.05;;;;;;;23.07;63.08;101130.31;10310591;28;20070;-69
2022/10/17 16:58:23;;;;;;;7.40;4.40;;;;;;;22.92;63.51;101138.16;10300002;28;20078;-69
2022/10/17 17:03:24;;;;;;;10.77;4.13;;;;;;;22.75;64.25;101147.13;10303358;28;20142;-68
2022/10/17 17:08:26;;;;;;;13.50;4.93;;;;;;;22.60;64.82;101148.66;10306277;28;20091;-69
2022/10/17 17:13:28;;;;;;;12.60;5.38;;;;;;;22.44;65.15;101148.25;10290388;28;20129;-70
2022/10/17 17:18:30;;;;;;;15.18;5.72;;;;;;;22.29;65.28;101159.66;10312444;28;20074;-68
2022/10/17 17:23:34;;;;;;;12.15;6.10;;;;;;;22.18;65.92;101155.78;10307407;28;20083;-67
2022/10/17 17:28:35;;;;;;;14.27;5.75;;;;;;;22.10;66.01;101153.38;10307362;28;20506;-68
2022/10/17 17:33:38;;;;;;;9.50;5.28;;;;;;;22.05;66.65;101155.16;10299904;28;20062;-69
2022/10/17 17:38:40;;;;;;;10.27;5.35;;;;;;;22.00;66.55;101172.28;10304511;28;20168;-68
2022/10/17 17:43:42;;;;;;;13.80;7.07;;;;;;;21.90;67.06;101163.75;10306145;28;20059;-68
2022/10/17 17:48:45;;;;;;;18.08;8.90;;;;;;;21.78;67.43;101166.44;10298300;28;20046;-68
2022/10/17 17:53:47;;;;;;;14.80;6.35;;;;;;;21.65;67.77;101172.13;10308667;28;20165;-67
2022/10/17 17:59:00;;;;;;;9.25;5.68;;;;;;;21.43;68.19;101171.72;10314581;28;20059;-68
2022/10/17 18:04:03;;;;;;;13.10;5.95;;;;;;;21.35;68.13;101181.06;10309131;28;20078;-69
2022/10/17 18:09:06;;;;;;;9.65;6.45;;;;;;;21.19;68.73;101180.56;10304992;28;20046;-68
2022/10/17 18:14:10;;;;;;;8.48;5.18;;;;;;;21.02;68.89;101193.16;10301276;28;20074;-67
2022/10/17 18:19:12;;;;;;;7.47;4.22;;;;;;;20.90;69.78;101193.03;10304589;28;20070;-69
2022/10/17 18:24:13;;;;;;;13.73;4.43;;;;;;;20.92;69.37;101195.56;10305065;28;20410;-68
2022/10/17 18:29:14;;;;;;;11.32;5.60;;;;;;;20.89;69.56;101204.19;10306371;28;20073;-67
2022/10/17 18:34:16;;;;;;;10.77;4.40;;;;;;;20.78;69.79;101211.25;10306230;28;20182;-67
2022/10/17 18:39:17;;;;;;;10.82;4.35;;;;;;;20.84;69.77;101217.72;10305278;28;20109;-67
2022/10/17 18:44:19;;;;;;;10.65;4.22;;;;;;;20.88;69.73;101213.47;10300897;28;20070;-67
2022/10/17 18:49:24;;;;;;;7.82;4.10;;;;;;;20.89;69.80;101215.13;10302319;28;20074;-67
2022/10/17 18:54:25;;;;;;;7.72;3.75;;;;;;;20.90;69.87;101214.09;10289418;28;20093;-67
2022/10/17 18:59:27;;;;;;;8.52;4.35;;;;;;;20.89;70.16;101216.00;10295840;28;20441;-67
2022/10/17 19:04:28;;;;;;;6.30;3.45;;;;;;;20.87;70.28;101215.34;10304196;28;20054;-67
2022/10/17 19:09:30;;;;;;;11.77;4.40;;;;;;;20.87;70.29;101222.72;10289869;28;20066;-67
2022/10/17 19:14:31;;;;;;;12.82;5.75;;;;;;;20.85;70.18;101222.09;10305031;28;20133;-67
2022/10/17 19:19:33;;;;;;;11.85;5.32;;;;;;;20.81;70.12;101216.25;10307408;28;20045;-67
2022/10/17 19:24:34;;;;;;;6.80;4.78;;;;;;;20.75;70.33;101212.53;10306240;28;20501;-67
2022/10/17 19:29:35;;;;;;;11.60;4.97;;;;;;;20.66;70.32;101207.56;10287141;28;20158;-67
2022/10/17 19:34:37;;;;;;;8.88;5.40;;;;;;;20.59;70.35;101208.41;10304563;28;20133;-66
2022/10/17 19:39:38;;;;;;;14.85;5.53;;;;;;;20.50;71.02;101195.25;10287155;28;20169;-66
2022/10/17 19:44:39;;;;;;;9.25;4.95;;;;;;;20.47;70.79;101201.13;10305905;28;20052;-66
2022/10/17 19:49:41;;;;;;;9.80;4.68;;;;;;;20.38;70.77;101201.41;10302893;28;20050;-67
2022/10/17 19:54:48;;;;;;;10.80;5.43;;;;;;;20.31;71.42;101202.50;10306116;28;20588;-67
2022/10/17 19:59:49;;;;;;;9.55;5.72;;;;;;;20.20;71.23;101204.88;10302567;28;20065;-65
2022/10/17 20:04:55;;;;;;;8.37;4.93;;;;;;;20.20;71.36;101195.81;10303923;28;20050;-66
2022/10/17 20:10:17;;;;;;;9.90;5.20;;;;;;;20.19;71.65;101199.63;10307206;28;20065;-67
2022/10/17 20:15:19;;;;;;;10.10;5.00;;;;;;;20.19;71.28;101197.72;10307095;28;20078;-66
2022/10/17 20:20:20;;;;;;;13.50;4.75;;;;;;;20.17;71.57;101199.84;10313330;28;20081;-65
2022/10/17 20:25:22;;;;;;;7.97;5.22;;;;;;;20.15;71.48;101204.69;10305177;28;20150;-66
2022/10/17 20:30:23;;;;;;;20.10;9.80;;;;;;;20.14;71.52;101202.16;10308508;28;20501;-66
2022/10/17 20:35:25;;;;;;;21.20;9.23;;;;;;;20.00;72.28;101220.50;10310425;28;20137;-66
2022/10/17 20:40:26;;;;;;;11.63;6.53;;;;;;;19.87;72.47;101236.97;10289728;28;20212;-66
2022/10/17 20:45:39;;;;;;;10.23;4.93;;;;;;;19.93;72.14;101236.91;10305018;28;20054;-66
2022/10/17 20:50:52;;;;;;;6.97;4.87;;;;;;;19.98;72.04;101236.25;10302516;28;20055;-67
2022/10/17 20:56:06;;;;;;;10.38;5.38;;;;;;;20.00;72.03;101224.09;10308044;28;20074;-66
2022/10/17 21:01:09;;;;;;;13.43;4.75;;;;;;;20.04;71.69;101226.38;10303379;28;20521;-67
2022/10/17 21:06:10;;;;;;;9.68;5.32;;;;;;;20.04;71.90;101229.09;10305837;28;20459;-66
2022/10/17 21:11:20;;;;;;;8.98;5.20;;;;;;;20.01;72.07;101230.38;10304788;28;20150;-66
2022/10/17 21:16:21;;;;;;;11.20;4.80;;;;;;;20.01;71.90;101231.22;10302839;28;20138;-65
2022/10/17 21:21:26;;;;;;;16.10;6.05;;;;;;;19.99;72.09;101233.31;10304667;28;20077;-66
2022/10/17 21:26:30;;;;;;;11.50;4.28;;;;;;;20.01;72.13;101241.31;10299396;28;20703;-65
2022/10/17 21:31:37;;;;;;;7.50;4.40;;;;;;;19.95;72.15;101242.16;10289597;28;20130;-66
2022/10/17 21:36:39;;;;;;;;;;;;;;;19.97;72.37;101223.69;10311921;28;20090;-66
2022/10/17 21:41:41;;;;;;;10.45;5.20;;;;;;;20.03;72.18;101219.25;10302338;28;20024;-67
2022/10/17 21:46:44;;;;;;;10.43;5.40;;;;;;;20.04;72.29;101223.66;10300501;28;20054;-67
2022/10/17 21:51:46;;;;;;;14.13;5.07;;;;;;;20.00;71.89;101218.63;10304257;28;20133;-67
2022/10/17 21:56:48;;;;;;;12.30;5.88;;;;;;;19.94;72.08;101219.47;10302713;28;20089;-66
2022/10/17 22:01:50;;;;;;;17.77;5.25;;;;;;;19.90;72.48;101223.69;10304674;28;20046;-67
2022/10/17 22:06:52;;;;;;;11.38;4.63;;;;;;;19.94;72.33;101218.66;10311178;28;20047;-66
2022/10/17 22:11:55;;;;;;;9.68;4.85;;;;;;;19.96;72.04;101217.41;10286602;28;20114;-66
2022/10/17 22:16:56;;;;;;;7.28;4.45;;;;;;;19.80;72.56;101229.59;10291078;28;20058;-66
2022/10/17 22:21:58;;;;;;;14.82;5.20;;;;;;;19.83;72.65;101233.81;10302666;28;20082;-66
2022/10/17 22:26:59;;;;;;;14.00;5.93;;;;;;;19.84;72.47;101234.66;10301200;28;20142;-66
2022/10/17 22:32:01;;;;;;;10.77;3.95;;;;;;;19.83;72.75;101222.03;10304986;28;20250;-66
2022/10/17 22:37:02;;;;;;;8.93;4.13;;;;;;;19.81;72.52;101216.81;10299461;28;20056;-66
2022/10/17 22:42:03;;;;;;;8.88;4.13;;;;;;;19.83;72.40;101220.19;10295354;28;20467;-66
2022/10/17 22:47:05;;;;;;;23.58;5.60;;;;;;;19.85;72.38;101219.97;10300856;28;20085;-66
2022/10/17 22:52:06;;;;;;;11.02;3.67;;;;;;;19.85;72.56;101218.06;10301519;28;20377;-66
2022/10/17 22:57:08;;;;;;;15.27;4.13;;;;;;;19.83;72.20;101214.72;10298991;28;20133;-66
2022/10/17 23:02:09;;;;;;;14.70;3.88;;;;;;;19.87;72.36;101212.41;10302741;28;20078;-66
2022/10/17 23:07:12;;;;;;;8.63;3.92;;;;;;;19.88;72.47;101197.69;10302459;28;20119;-65
2022/10/17 23:12:14;;;;;;;13.15;3.83;;;;;;;19.80;72.80;101196.03;10296813;28;20236;-65
2022/10/17 23:17:16;;;;;;;20.90;4.72;;;;;;;19.80;72.77;101201.50;10300745;28;20113;-65
2022/10/17 23:22:17;;;;;;;9.50;4.18;;;;;;;19.84;72.71;101200.00;10302281;28;20509;-66
2022/10/17 23:27:18;;;;;;;11.13;4.32;;;;;;;19.85;72.62;101198.97;10299937;28;20145;-65